Time;durP1;ratioP1;P1;durP2;ratioP2;P2;SDS_P1;SDS_P2;PMS_P1;PMS_P2;Temp;Humidity;BMP_temperature;BMP_pressure;BME280_temperature;BME280_humidity;BME280_pressure;Samples;Min_cycle;Max_cycle;Signal;HPM_P1;HPM_P2
2021/09/17 00:01:47;;;;;;;10.50;5.40;;;;;;;10.11;100.00;93987.34;5115357;28;20248;-79
2021/09/17 00:04:13;;;;;;;13.07;5.70;;;;;;;10.17;100.00;93997.00;5115232;28;20212;-79
2021/09/17 00:06:41;;;;;;;11.20;7.00;;;;;;;10.18;100.00;93990.78;5115295;28;20197;-80
2021/09/17 00:09:07;;;;;;;10.10;6.27;;;;;;;10.19;100.00;93985.38;5115110;28;20216;-79
2021/09/17 00:11:34;;;;;;;15.30;6.90;;;;;;;10.19;100.00;93992.38;5114806;28;20225;-79
2021/09/17 00:14:02;;;;;;;15.93;6.83;;;;;;;10.16;100.00;93990.19;5115120;28;20220;-79
2021/09/17 00:16:29;;;;;;;11.53;5.80;;;;;;;10.15;100.00;93985.97;5115127;28;20212;-79
2021/09/17 00:18:55;;;;;;;9.70;6.13;;;;;;;10.11;100.00;93985.53;5115109;28;20299;-79
2021/09/17 00:21:21;;;;;;;9.83;6.10;;;;;;;10.12;100.00;93983.72;5114896;28;20705;-79
2021/09/17 00:23:49;;;;;;;11.90;6.20;;;;;;;10.11;100.00;93985.53;5114760;28;20206;-79
2021/09/17 00:26:16;;;;;;;10.60;6.05;;;;;;;10.11;100.00;93982.13;5114213;28;20243;-79
2021/09/17 00:28:42;;;;;;;12.87;6.83;;;;;;;10.10;100.00;93980.50;5114923;28;20195;-80
2021/09/17 00:31:12;;;;;;;11.03;5.87;;;;;;;10.02;100.00;93978.06;5114767;28;20220;-80
2021/09/17 00:33:38;;;;;;;8.00;5.20;;;;;;;9.92;100.00;93968.75;5114722;28;20640;-79
2021/09/17 00:36:05;;;;;;;11.73;6.07;;;;;;;9.89;100.00;93971.78;5114300;28;20201;-80
2021/09/17 00:38:39;;;;;;;11.53;6.40;;;;;;;9.92;100.00;93973.97;5114495;28;20204;-80
2021/09/17 00:41:10;;;;;;;10.37;5.90;;;;;;;9.87;100.00;93972.94;5113901;28;20197;-80
2021/09/17 00:43:39;;;;;;;13.07;6.33;;;;;;;9.90;100.00;93972.56;5114608;28;20205;-80
2021/09/17 00:46:07;;;;;;;11.97;6.70;;;;;;;9.94;100.00;93976.41;5114397;28;20205;-79
2021/09/17 00:48:34;;;;;;;15.70;7.60;;;;;;;9.98;100.00;93969.81;5114393;28;20198;-79
2021/09/17 00:51:00;;;;;;;11.20;6.60;;;;;;;10.02;100.00;93978.06;5113341;28;20237;-79
2021/09/17 00:53:29;;;;;;;16.00;7.93;;;;;;;10.06;100.00;93981.88;5114332;28;20197;-79
2021/09/17 00:55:55;;;;;;;12.00;7.20;;;;;;;10.08;100.00;93972.09;5114320;28;20209;-79
2021/09/17 00:58:23;;;;;;;11.27;6.83;;;;;;;10.11;100.00;93972.50;5113543;28;20255;-79
2021/09/17 01:00:50;;;;;;;12.27;7.27;;;;;;;10.13;100.00;93974.91;5114130;28;20563;-79
2021/09/17 01:03:16;;;;;;;14.43;7.00;;;;;;;10.11;100.00;93971.69;5114062;28;20589;-79
2021/09/17 01:05:43;;;;;;;15.47;7.27;;;;;;;10.10;100.00;93970.06;5113628;28;20201;-79
2021/09/17 01:08:09;;;;;;;19.03;7.83;;;;;;;10.15;100.00;93967.69;5113854;28;20201;-80
2021/09/17 01:10:36;;;;;;;15.63;7.77;;;;;;;10.16;100.00;93964.91;5113771;28;20720;-80
2021/09/17 01:13:03;;;;;;;14.23;7.57;;;;;;;10.18;100.00;93960.28;5114059;28;20201;-79
2021/09/17 01:15:33;;;;;;;17.67;7.63;;;;;;;10.17;100.00;93963.09;5113806;28;20204;-79
2021/09/17 01:18:01;;;;;;;14.77;8.17;;;;;;;10.12;100.00;93965.47;5113756;28;20201;-78
2021/09/17 01:20:28;;;;;;;14.77;8.50;;;;;;;10.11;100.00;93958.66;5113698;28;20201;-79
2021/09/17 01:22:56;;;;;;;15.13;8.07;;;;;;;10.10;100.00;93952.63;5113998;28;20197;-79
2021/09/17 01:25:23;;;;;;;15.90;8.30;;;;;;;10.11;100.00;93958.66;5113586;28;20225;-78
2021/09/17 01:27:52;;;;;;;22.13;9.13;;;;;;;10.11;100.00;93951.63;5113751;28;20213;-78
2021/09/17 01:30:23;;;;;;;17.53;9.03;;;;;;;10.08;100.00;93951.22;5113746;28;20229;-78
2021/09/17 01:32:50;;;;;;;19.47;8.87;;;;;;;10.08;100.00;93951.22;5113357;28;20205;-79
2021/09/17 01:35:19;;;;;;;18.47;9.40;;;;;;;10.06;100.00;93951.41;5113565;28;20220;-78
2021/09/17 01:37:46;;;;;;;22.20;8.93;;;;;;;10.00;100.00;93941.72;5112834;28;20201;-78
2021/09/17 01:40:16;;;;;;;15.83;7.90;;;;;;;9.95;100.00;93944.91;5113473;28;20201;-78
2021/09/17 01:42:45;;;;;;;16.30;8.73;;;;;;;9.90;100.00;93942.06;5113480;28;20596;-78
2021/09/17 01:45:15;;;;;;;16.87;8.97;;;;;;;9.86;100.00;93938.25;5113441;28;20208;-78
2021/09/17 01:47:41;;;;;;;22.67;9.20;;;;;;;9.92;100.00;93931.44;5113361;28;20295;-78
2021/09/17 01:50:09;;;;;;;24.57;8.93;;;;;;;9.92;100.00;93924.44;5113316;28;20225;-78
2021/09/17 01:52:35;;;;;;;16.30;8.50;;;;;;;9.91;100.00;93919.41;5113648;28;20528;-78
2021/09/17 01:55:02;;;;;;;18.60;8.77;;;;;;;9.82;100.00;93916.16;5113513;28;20202;-78
2021/09/17 01:57:30;;;;;;;15.80;8.40;;;;;;;9.66;100.00;93911.22;5113127;28;20197;-78
2021/09/17 01:59:56;;;;;;;15.73;7.83;;;;;;;9.52;100.00;93911.16;5112896;28;20201;-77
2021/09/17 02:02:23;;;;;;;15.60;7.20;;;;;;;9.37;100.00;93907.84;5113270;28;20201;-78
2021/09/17 02:04:52;;;;;;;16.50;7.93;;;;;;;9.37;100.00;93908.63;5113285;28;20209;-78
2021/09/17 02:07:20;;;;;;;16.23;8.37;;;;;;;9.31;100.00;93903.38;5113353;28;20211;-78
2021/09/17 02:09:50;;;;;;;15.77;7.70;;;;;;;9.30;100.00;93913.00;5113108;28;20262;-78
2021/09/17 02:12:17;;;;;;;15.30;8.47;;;;;;;9.31;100.00;93913.81;5112843;28;20201;-77
2021/09/17 02:14:45;;;;;;;23.20;9.37;;;;;;;9.36;100.00;93919.25;5113115;28;20201;-79
2021/09/17 02:17:13;;;;;;;18.60;10.07;;;;;;;9.38;100.00;93914.69;5113241;28;20224;-78
2021/09/17 02:19:41;;;;;;;22.83;10.20;;;;;;;9.32;100.00;93910.22;5112535;28;20197;-78
2021/09/17 02:22:08;;;;;;;21.60;10.23;;;;;;;9.33;100.00;93911.84;5113143;28;20201;-78
2021/09/17 02:24:34;;;;;;;24.73;10.43;;;;;;;9.40;100.00;93912.69;5112828;28;20686;-78
2021/09/17 02:27:01;;;;;;;22.13;9.93;;;;;;;9.42;100.00;93916.69;5112757;28;20229;-78
2021/09/17 02:29:31;;;;;;;21.43;10.17;;;;;;;9.44;100.00;93913.91;5112350;28;20533;-78
2021/09/17 02:31:59;;;;;;;28.20;11.37;;;;;;;9.51;100.00;93911.34;5113013;28;20564;-79
2021/09/17 02:34:26;;;;;;;22.13;10.30;;;;;;;9.48;100.00;93907.31;5112799;28;20198;-79
2021/09/17 02:36:53;;;;;;;20.03;9.80;;;;;;;9.45;100.00;93910.31;5113006;28;20221;-78
2021/09/17 02:39:22;;;;;;;30.00;11.60;;;;;;;9.52;100.00;93905.16;5112859;28;20292;-78
2021/09/17 02:41:49;;;;;;;29.23;11.47;;;;;;;9.51;100.00;93911.34;5112971;28;20213;-78
2021/09/17 02:44:15;;;;;;;18.07;9.70;;;;;;;9.48;100.00;93907.31;5112441;28;20660;-78
2021/09/17 02:46:42;;;;;;;28.57;10.07;;;;;;;9.51;100.00;93909.56;5112986;28;20194;-78
2021/09/17 02:49:09;;;;;;;21.57;10.33;;;;;;;9.51;100.00;93906.94;5113735;28;20697;-78
2021/09/17 02:51:38;;;;;;;23.90;10.30;;;;;;;9.52;100.00;93905.94;5116276;28;20229;-78
2021/09/17 02:54:05;;;;;;;23.93;10.70;;;;;;;9.54;100.00;93903.97;5116417;28;20197;-79
2021/09/17 02:56:37;;;;;;;19.63;9.83;;;;;;;9.55;100.00;93902.97;5116491;28;20204;-79
2021/09/17 02:59:07;;;;;;;20.50;10.20;;;;;;;9.52;100.00;93900.72;5116561;28;20205;-78
2021/09/17 03:01:34;;;;;;;26.93;11.33;;;;;;;9.50;100.00;93897.50;5116123;28;20201;-78
2021/09/17 03:04:00;;;;;;;32.03;11.43;;;;;;;9.49;100.00;93906.31;5116506;28;20532;-78
2021/09/17 03:06:28;;;;;;;32.53;11.37;;;;;;;9.51;100.00;93899.13;5116246;28;20201;-78
2021/09/17 03:08:54;;;;;;;26.53;11.93;;;;;;;9.55;100.00;93905.56;5116090;28;20559;-78
2021/09/17 03:11:21;;;;;;;27.90;12.10;;;;;;;9.58;100.00;93893.97;5116169;28;20229;-78
2021/09/17 03:13:48;;;;;;;27.13;10.73;;;;;;;9.57;100.00;93903.56;5116326;28;20281;-78
2021/09/17 03:16:14;;;;;;;25.90;10.70;;;;;;;9.54;100.00;93898.75;5116213;28;20200;-78
2021/09/17 03:18:41;;;;;;;31.17;11.83;;;;;;;9.56;100.00;93904.56;5115925;28;20201;-79
2021/09/17 03:21:10;;;;;;;23.70;10.90;;;;;;;9.54;100.00;93896.16;5116001;28;20204;-79
2021/09/17 03:23:38;;;;;;;24.80;11.17;;;;;;;9.52;100.00;93892.91;5116281;28;20292;-78
2021/09/17 03:26:05;;;;;;;27.23;11.20;;;;;;;9.52;100.00;93895.50;5115574;28;20233;-79
2021/09/17 03:28:32;;;;;;;28.30;12.20;;;;;;;9.57;100.00;93889.72;5116043;28;20201;-78
2021/09/17 03:30:58;;;;;;;23.53;10.90;;;;;;;9.51;100.00;93893.91;5115853;28;20587;-79
2021/09/17 03:33:27;;;;;;;23.73;10.50;;;;;;;9.45;100.00;93892.06;5115786;28;20198;-78
2021/09/17 03:35:53;;;;;;;29.07;12.07;;;;;;;9.41;100.00;93896.88;5116085;28;20206;-78
2021/09/17 03:38:20;;;;;;;22.83;10.50;;;;;;;9.38;100.00;93893.84;5115882;28;20197;-78
2021/09/17 03:40:50;;;;;;;23.23;10.67;;;;;;;9.40;100.00;93897.03;5115572;28;20212;-78
2021/09/17 03:43:17;;;;;;;27.47;10.60;;;;;;;9.36;100.00;93890.59;5115981;28;20205;-78
2021/09/17 03:45:44;;;;;;;25.57;11.33;;;;;;;9.42;100.00;93889.84;5115677;28;20213;-78
2021/09/17 03:48:16;;;;;;;28.60;11.80;;;;;;;9.41;100.00;93893.47;5115644;28;20201;-78
2021/09/17 03:50:42;;;;;;;26.77;10.77;;;;;;;9.40;100.00;93889.22;5115656;28;20232;-78
2021/09/17 03:53:11;;;;;;;35.60;11.70;;;;;;;9.33;100.00;93891.00;5115646;28;20205;-78
2021/09/17 03:55:48;;;;;;;22.52;11.93;;;;;;;9.28;100.00;93886.34;5114360;28;20435;-78
2021/09/17 03:58:18;;;;;;;24.47;10.63;;;;;;;9.25;100.00;93887.50;5115557;28;20197;-79
2021/09/17 04:00:47;;;;;;;22.97;9.70;;;;;;;9.30;100.00;93880.94;5114379;28;20288;-78
2021/09/17 04:03:14;;;;;;;17.37;8.77;;;;;;;9.24;100.00;93883.31;5113268;28;20197;-78
2021/09/17 04:05:46;;;;;;;27.57;10.13;;;;;;;9.28;100.00;93877.72;5115271;28;20204;-79
2021/09/17 04:08:15;;;;;;;21.33;8.97;;;;;;;9.30;100.00;93886.16;5115217;28;20208;-78
2021/09/17 04:10:44;;;;;;;22.20;10.20;;;;;;;9.29;100.00;93881.94;5115003;28;20197;-78
2021/09/17 04:13:11;;;;;;;20.13;9.67;;;;;;;9.28;100.00;93880.34;5115042;28;20247;-79
2021/09/17 04:15:43;;;;;;;24.13;10.27;;;;;;;9.31;100.00;93888.56;5114842;28;20205;-79
2021/09/17 04:18:15;;;;;;;25.03;10.83;;;;;;;9.33;100.00;93883.19;5115089;28;20198;-78
2021/09/17 04:20:42;;;;;;;27.73;10.50;;;;;;;9.36;100.00;93886.22;5114832;28;20300;-78
2021/09/17 04:23:09;;;;;;;21.50;10.00;;;;;;;9.40;100.00;93894.44;5114756;28;20229;-78
2021/09/17 04:25:35;;;;;;;21.87;9.97;;;;;;;9.43;100.00;93881.03;5114603;28;20588;-78
2021/09/17 04:28:02;;;;;;;17.37;8.90;;;;;;;9.41;100.00;93891.66;5114919;28;20334;-78
2021/09/17 04:30:29;;;;;;;19.10;9.17;;;;;;;9.41;100.00;93888.25;5114691;28;20193;-78
2021/09/17 04:32:56;;;;;;;29.33;10.40;;;;;;;9.48;100.00;93894.28;5114824;28;20591;-79
2021/09/17 04:35:23;;;;;;;21.07;9.20;;;;;;;9.48;100.00;93883.88;5114777;28;20548;-78
2021/09/17 04:37:56;;;;;;;23.90;9.83;;;;;;;9.51;100.00;93888.72;5114332;28;20248;-77
2021/09/17 04:40:24;;;;;;;19.97;10.07;;;;;;;9.55;100.00;93892.53;5114898;28;20211;-78
2021/09/17 04:42:50;;;;;;;17.40;8.53;;;;;;;9.58;100.00;93894.75;5114637;28;20205;-79
2021/09/17 04:45:17;;;;;;;19.83;10.47;;;;;;;9.63;100.00;93889.78;5114585;28;20197;-78
2021/09/17 04:47:44;;;;;;;14.27;8.57;;;;;;;9.62;100.00;93895.97;5114405;28;20198;-78
2021/09/17 04:50:12;;;;;;;16.57;8.80;;;;;;;9.67;100.00;93889.41;5114305;28;20562;-79
2021/09/17 04:52:39;;;;;;;19.30;9.13;;;;;;;9.68;100.00;93889.22;5114110;28;20229;-78
2021/09/17 04:55:06;;;;;;;19.30;8.57;;;;;;;9.71;100.00;93890.59;5113653;28;20201;-78
2021/09/17 04:57:33;;;;;;;17.83;8.80;;;;;;;9.74;100.00;93883.22;5113926;28;20679;-78
2021/09/17 04:59:59;;;;;;;22.70;9.40;;;;;;;9.71;100.00;93877.56;5114198;28;20201;-78
2021/09/17 05:02:26;;;;;;;20.33;9.37;;;;;;;9.76;100.00;93880.44;5113882;28;20201;-78
2021/09/17 05:04:52;;;;;;;29.83;10.27;;;;;;;9.77;100.00;93882.03;5114152;28;20197;-78
2021/09/17 05:07:20;;;;;;;19.20;9.83;;;;;;;9.78;100.00;93881.03;5113808;28;20209;-78
2021/09/17 05:09:46;;;;;;;21.73;9.47;;;;;;;9.80;100.00;93892.88;5113988;28;20201;-79
2021/09/17 05:12:13;;;;;;;17.40;8.43;;;;;;;9.85;100.00;93889.69;5113944;28;20560;-78
2021/09/17 05:14:39;;;;;;;16.80;8.70;;;;;;;9.90;100.00;93889.91;5113699;28;20201;-78
2021/09/17 05:17:06;;;;;;;14.27;8.00;;;;;;;9.93;100.00;93891.34;5113868;28;20208;-78
2021/09/17 05:19:32;;;;;;;17.10;8.63;;;;;;;9.94;100.00;93892.94;5113774;28;20652;-78
2021/09/17 05:21:59;;;;;;;18.63;9.87;;;;;;;9.99;100.00;93903.59;5113713;28;20193;-79
2021/09/17 05:24:27;;;;;;;20.17;8.83;;;;;;;10.03;100.00;93901.44;5113893;28;20204;-78
2021/09/17 05:26:53;;;;;;;20.50;9.33;;;;;;;10.03;100.00;93909.25;5113241;28;20233;-79
2021/09/17 05:29:19;;;;;;;19.67;9.47;;;;;;;10.03;100.00;93904.03;5113675;28;20204;-79
2021/09/17 05:31:46;;;;;;;17.83;9.23;;;;;;;10.07;100.00;93894.81;5113576;28;20297;-78
2021/09/17 05:34:13;;;;;;;18.97;9.60;;;;;;;10.06;100.00;93903.63;5113606;28;20318;-79
2021/09/17 05:36:39;;;;;;;22.55;9.07;;;;;;;10.11;100.00;93896.06;5113379;28;20296;-79
2021/09/17 05:39:06;;;;;;;19.90;8.83;;;;;;;10.12;100.00;93895.03;5113708;28;20288;-79
2021/09/17 05:41:34;;;;;;;15.50;9.10;;;;;;;10.18;100.00;93891.66;5113346;28;20201;-78
2021/09/17 05:44:00;;;;;;;16.43;8.53;;;;;;;10.22;100.00;93892.84;5113478;28;20236;-79
2021/09/17 05:46:26;;;;;;;15.93;7.87;;;;;;;10.22;100.00;93900.69;5113425;28;20197;-78
2021/09/17 05:48:53;;;;;;;18.13;8.68;;;;;;;10.30;100.00;93897.91;5113302;28;20201;-78
2021/09/17 05:51:19;;;;;;;16.47;8.57;;;;;;;10.36;100.00;93894.56;5113258;28;20702;-78
2021/09/17 05:53:46;;;;;;;13.63;7.70;;;;;;;10.39;100.00;93900.38;5113020;28;20198;-78
2021/09/17 05:56:12;;;;;;;15.32;7.72;;;;;;;10.41;100.00;93900.97;5113054;28;20250;-78
2021/09/17 05:58:40;;;;;;;14.77;7.43;;;;;;;10.53;100.00;93902.03;5113346;28;20201;-79
2021/09/17 06:01:07;;;;;;;18.50;8.63;;;;;;;10.65;100.00;93892.63;5112996;28;20651;-79
2021/09/17 06:03:34;;;;;;;14.07;8.00;;;;;;;10.73;100.00;93889.81;5113149;28;20630;-79
2021/09/17 06:06:01;;;;;;;12.57;7.10;;;;;;;10.74;100.00;93891.44;5113366;28;20203;-78
2021/09/17 06:08:27;;;;;;;11.77;6.33;;;;;;;10.92;100.00;93897.88;5113324;28;20197;-78
2021/09/17 06:10:53;;;;;;;14.73;7.00;;;;;;;10.95;100.00;93889.66;5113253;28;20201;-78
2021/09/17 06:13:20;;;;;;;12.70;7.53;;;;;;;11.09;100.00;93886.06;5112822;28;20221;-78
2021/09/17 06:15:48;;;;;;;13.97;6.73;;;;;;;11.28;100.00;93888.88;5113062;28;20592;-78
2021/09/17 06:18:15;;;;;;;11.47;7.00;;;;;;;11.15;100.00;93889.66;5113073;28;20667;-78
2021/09/17 06:20:41;;;;;;;13.13;5.50;;;;;;;11.19;100.00;93884.84;5113261;28;20557;-79
2021/09/17 06:23:08;;;;;;;8.30;5.68;;;;;;;11.40;100.00;93882.00;5112799;28;20201;-78
2021/09/17 06:25:34;;;;;;;12.52;6.00;;;;;;;11.51;100.00;93882.41;5116328;28;20229;-78
2021/09/17 06:28:01;;;;;;;10.88;5.43;;;;;;;11.47;100.00;93880.22;5116892;28;20204;-79
2021/09/17 06:30:27;;;;;;;8.90;5.78;;;;;;;11.66;100.00;93886.41;5117583;28;20659;-79
2021/09/17 06:32:55;;;;;;;7.88;5.32;;;;;;;11.90;100.00;93885.94;5117009;28;20225;-79
2021/09/17 06:35:22;;;;;;;5.97;4.43;;;;;;;11.79;100.00;93885.59;5116838;28;20197;-79
2021/09/17 06:37:50;;;;;;;11.40;5.03;;;;;;;12.08;100.00;93890.56;5116858;28;20198;-79
2021/09/17 06:40:18;;;;;;;8.25;4.95;;;;;;;12.30;100.00;93889.25;5116956;28;20201;-78
2021/09/17 06:42:44;;;;;;;15.00;5.07;;;;;;;12.20;100.00;93894.94;5116903;28;20198;-79
2021/09/17 06:45:11;;;;;;;8.65;4.55;;;;;;;12.28;100.00;93891.28;5116497;28;20202;-78
2021/09/17 06:47:46;;;;;;;5.72;4.13;;;;;;;12.24;100.00;93895.34;5116530;28;20581;-78
2021/09/17 06:50:15;;;;;;;6.50;4.03;;;;;;;12.30;100.00;93891.06;5116875;28;20197;-79
2021/09/17 06:52:47;;;;;;;6.68;3.92;;;;;;;12.34;100.00;93894.88;5116585;28;20588;-79
2021/09/17 06:55:14;;;;;;;6.50;4.30;;;;;;;12.38;100.00;93886.41;5116325;28;20193;-79
2021/09/17 06:57:48;;;;;;;6.30;3.67;;;;;;;12.19;100.00;93892.50;5116227;28;20559;-79
2021/09/17 07:00:16;;;;;;;5.05;3.63;;;;;;;12.40;100.00;93881.75;5116836;28;20200;-78
2021/09/17 07:02:43;;;;;;;4.80;3.25;;;;;;;12.56;100.00;93890.94;5116279;28;20208;-79
2021/09/17 07:05:11;;;;;;;5.70;3.85;;;;;;;12.42;100.00;93889.41;5116048;28;20197;-78
2021/09/17 07:07:39;;;;;;;13.88;3.40;;;;;;;12.45;100.00;93886.38;5116379;28;20210;-79
2021/09/17 07:10:07;;;;;;;5.13;3.45;;;;;;;12.48;100.00;93887.78;5116157;28;20201;-79
2021/09/17 07:12:34;;;;;;;5.50;3.55;;;;;;;12.62;100.00;93884.06;5116139;28;20233;-79
2021/09/17 07:15:00;;;;;;;7.38;3.42;;;;;;;12.72;100.00;93880.97;5115931;28;20197;-79
2021/09/17 07:17:27;;;;;;;6.22;3.67;;;;;;;12.74;100.00;93881.59;5116286;28;20211;-78
2021/09/17 07:19:54;;;;;;;7.45;3.92;;;;;;;12.87;100.00;93889.38;5115918;28;20201;-79
2021/09/17 07:22:20;;;;;;;7.53;4.07;;;;;;;12.98;100.00;93881.84;5115987;28;20202;-78
2021/09/17 07:24:49;;;;;;;9.15;3.67;;;;;;;13.25;100.00;93891.09;5115994;28;20237;-79
2021/09/17 07:27:16;;;;;;;3.88;3.13;;;;;;;13.48;100.00;93887.91;5115736;28;20585;-79
2021/09/17 07:29:42;;;;;;;5.63;3.03;;;;;;;13.58;100.00;93892.69;5115488;28;20656;-80
2021/09/17 07:32:09;;;;;;;4.82;2.90;;;;;;;13.70;100.00;93890.13;5115764;28;20224;-79
2021/09/17 07:34:35;;;;;;;5.45;3.28;;;;;;;13.83;100.00;93897.09;5115943;28;20231;-79
2021/09/17 07:37:02;;;;;;;6.43;3.22;;;;;;;14.05;100.00;93887.78;5114749;28;20204;-79
2021/09/17 07:39:29;;;;;;;4.22;3.22;;;;;;;14.19;100.00;93895.50;5115485;28;20220;-79
2021/09/17 07:41:57;;;;;;;5.13;3.05;;;;;;;14.56;100.00;93893.63;5115798;28;20296;-79
2021/09/17 07:44:23;;;;;;;4.95;3.08;;;;;;;14.65;100.00;93895.97;5115410;28;20208;-78
2021/09/17 07:46:50;;;;;;;5.47;3.67;;;;;;;14.72;100.00;93902.75;5115467;28;20193;-79
2021/09/17 07:49:16;;;;;;;5.05;3.05;;;;;;;14.31;100.00;93895.56;5115554;28;20201;-79
2021/09/17 07:51:43;;;;;;;3.67;2.90;;;;;;;14.51;100.00;93901.38;5115366;28;20207;-79
2021/09/17 07:54:09;;;;;;;5.38;3.03;;;;;;;14.51;100.00;93898.75;5115448;28;20202;-79
2021/09/17 07:56:36;;;;;;;3.47;2.67;;;;;;;14.67;100.00;93904.44;5115439;28;20208;-79
2021/09/17 07:59:03;;;;;;;9.63;3.00;;;;;;;14.95;100.00;93904.69;5115210;28;20198;-79
2021/09/17 08:01:30;;;;;;;5.18;3.10;;;;;;;15.49;100.00;93899.41;5115261;28;20202;-78
2021/09/17 08:03:56;;;;;;;6.18;2.80;;;;;;;15.41;100.00;93905.00;5115384;28;20247;-78
2021/09/17 08:06:23;;;;;;;4.03;2.97;;;;;;;15.54;100.00;93902.16;5114931;28;20201;-79
2021/09/17 08:08:49;;;;;;;5.75;2.58;;;;;;;15.73;100.00;93894.13;5115028;28;20202;-78
2021/09/17 08:11:16;;;;;;;3.13;2.42;;;;;;;15.96;100.00;93908.38;5115095;28;20197;-79
2021/09/17 08:13:42;;;;;;;3.15;2.47;;;;;;;15.76;98.53;93901.63;5115025;28;20236;-78
2021/09/17 08:16:10;;;;;;;2.47;2.08;;;;;;;15.92;100.00;93905.41;5115029;28;20258;-78
2021/09/17 08:18:36;;;;;;;6.25;2.35;;;;;;;16.01;97.26;93903.19;5115004;28;20198;-77
2021/09/17 08:21:03;;;;;;;4.43;2.53;;;;;;;16.08;90.47;93911.78;5114693;28;20644;-78
2021/09/17 08:23:30;;;;;;;4.72;2.55;;;;;;;16.21;89.00;93908.91;5114825;28;20202;-78
2021/09/17 08:25:56;;;;;;;8.77;2.67;;;;;;;16.43;88.72;93905.63;5114700;28;20245;-78
2021/09/17 08:28:23;;;;;;;5.05;2.60;;;;;;;16.44;90.85;93910.69;5114573;28;20667;-78
2021/09/17 08:30:50;;;;;;;3.97;2.78;;;;;;;16.62;84.44;93908.91;5114904;28;20567;-77
2021/09/17 08:33:18;;;;;;;4.88;2.88;;;;;;;16.80;82.85;93915.84;5114610;28;20225;-78
2021/09/17 08:35:45;;;;;;;4.47;2.90;;;;;;;17.07;81.53;93902.09;5114475;28;20220;-77
2021/09/17 08:38:11;;;;;;;4.10;2.60;;;;;;;17.15;83.71;93907.00;5114378;28;20278;-77
2021/09/17 08:40:38;;;;;;;3.33;2.50;;;;;;;17.01;82.23;93911.78;5114552;28;20653;-78
2021/09/17 08:43:05;;;;;;;2.53;2.10;;;;;;;17.25;72.37;93912.44;5114435;28;20193;-78
2021/09/17 08:45:32;;;;;;;4.07;2.40;;;;;;;17.35;69.68;93914.44;5108109;28;20572;-79
2021/09/17 08:48:02;;;;;;;2.95;2.42;;;;;;;16.75;77.07;93921.00;5093631;28;20209;-79
2021/09/17 08:50:31;;;;;;;3.00;2.42;;;;;;;16.35;80.46;93924.44;5093683;28;20201;-78
2021/09/17 08:52:57;;;;;;;2.65;2.45;;;;;;;16.73;84.71;93917.81;5093929;28;20426;-79
2021/09/17 08:55:24;;;;;;;4.18;2.28;;;;;;;16.47;83.04;93917.34;5093976;28;20198;-77
2021/09/17 08:57:50;;;;;;;2.17;1.95;;;;;;;16.64;82.08;93915.56;5093921;28;20289;-79
2021/09/17 09:00:39;;;;;;;2.47;1.90;;;;;;;16.48;79.84;93910.22;5093808;28;20275;-79
2021/09/17 09:03:08;;;;;;;2.53;2.05;;;;;;;16.49;80.47;93909.16;5093946;28;20224;-78
2021/09/17 09:05:41;;;;;;;2.33;1.60;;;;;;;16.19;73.04;93913.59;5104311;28;20207;-79
2021/09/17 09:08:08;;;;;;;3.08;1.55;;;;;;;16.08;75.39;93909.16;5113773;28;20288;-78
2021/09/17 09:10:35;;;;;;;1.70;1.55;;;;;;;16.53;79.36;93900.56;5113910;28;20674;-79
2021/09/17 09:13:04;;;;;;;4.60;1.60;;;;;;;16.78;77.33;93902.09;5112549;28;20547;-78
2021/09/17 09:15:33;;;;;;;1.30;1.20;;;;;;;16.88;75.45;93912.06;5113678;28;20712;-78
2021/09/17 09:18:02;;;;;;;2.15;1.40;;;;;;;16.99;75.00;93909.38;5113883;28;20205;-78
2021/09/17 09:20:30;;;;;;;3.92;1.50;;;;;;;16.78;69.81;93905.53;5113928;28;20240;-78
2021/09/17 09:23:14;;;;;;;1.08;1.02;;;;;;;17.07;69.48;93902.09;5113853;28;20193;-78
2021/09/17 09:25:55;;;;;;;1.80;1.30;;;;;;;16.77;73.72;93905.75;5113520;28;20229;-78
2021/09/17 09:28:27;;;;;;;2.15;1.33;;;;;;;17.24;70.87;93899.50;5113796;28;20209;-78
2021/09/17 09:31:03;;;;;;;1.15;0.95;;;;;;;17.27;71.33;93901.63;5113881;28;20279;-78
2021/09/17 09:33:31;;;;;;;1.27;1.10;;;;;;;17.39;75.67;93900.53;5113494;28;20712;-78
2021/09/17 09:36:00;;;;;;;1.48;1.10;;;;;;;17.46;66.34;93897.75;5113115;28;20204;-79
2021/09/17 09:38:41;;;;;;;1.70;1.13;;;;;;;17.91;71.10;93904.00;5113412;28;20201;-78
2021/09/17 09:41:12;;;;;;;1.20;1.10;;;;;;;17.20;72.19;93899.97;5113631;28;20613;-78
2021/09/17 09:43:41;;;;;;;4.10;1.63;;;;;;;17.56;70.99;93891.81;5109046;28;20220;-79
2021/09/17 09:46:24;;;;;;;2.15;1.08;;;;;;;17.27;72.97;93889.28;5112869;28;20232;-78
2021/09/17 09:49:25;;;;;;;3.38;1.20;;;;;;;17.12;74.90;93886.34;5113668;28;20201;-78
2021/09/17 09:51:57;;;;;;;2.60;1.20;;;;;;;17.18;73.23;93888.03;5049635;28;20223;-78
2021/09/17 09:54:28;;;;;;;1.50;1.10;;;;;;;17.64;68.72;93888.78;5102428;28;20232;-77
2021/09/17 09:56:58;;;;;;;2.72;1.38;;;;;;;17.50;72.67;93887.50;5113032;28;20197;-77
2021/09/17 09:59:27;;;;;;;1.88;1.10;;;;;;;17.24;70.71;93883.69;5112791;28;20201;-77
2021/09/17 10:01:54;;;;;;;1.33;1.08;;;;;;;16.99;69.12;93883.00;5113264;28;20208;-77
2021/09/17 10:04:23;;;;;;;1.90;1.20;;;;;;;16.94;69.28;93887.38;5113328;28;20609;-77
2021/09/17 10:07:02;;;;;;;1.60;1.17;;;;;;;16.78;71.82;93883.63;5112988;28;20205;-77
2021/09/17 10:09:30;;;;;;;8.38;1.35;;;;;;;17.55;75.46;93879.66;5113015;28;20213;-78
2021/09/17 10:11:59;;;;;;;2.22;1.20;;;;;;;17.61;68.73;93876.06;5113144;28;20200;-77
2021/09/17 10:14:27;;;;;;;1.40;1.08;;;;;;;17.88;61.57;93878.06;5113180;28;20225;-77
2021/09/17 10:16:54;;;;;;;1.27;1.00;;;;;;;17.58;61.34;93876.53;5113047;28;20674;-77
2021/09/17 10:19:22;;;;;;;1.58;1.35;;;;;;;17.49;68.84;93870.88;5112986;28;20198;-78
2021/09/17 10:21:55;;;;;;;0.95;0.90;;;;;;;17.55;62.92;93880.47;5112952;28;20201;-77
2021/09/17 10:24:36;;;;;;;0.95;0.80;;;;;;;17.82;63.50;93876.34;5113137;28;20201;-77
2021/09/17 10:27:07;;;;;;;1.55;1.20;;;;;;;18.60;64.86;93874.47;5112900;28;20305;-77
2021/09/17 10:29:37;;;;;;;1.95;1.20;;;;;;;17.94;64.40;93877.09;5113071;28;20202;-77
2021/09/17 10:32:05;;;;;;;3.65;1.00;;;;;;;18.22;66.95;93867.38;5112717;28;20205;-78
2021/09/17 10:34:35;;;;;;;1.63;1.23;;;;;;;17.98;68.90;93867.63;5112739;28;20722;-77
2021/09/17 10:37:01;;;;;;;1.05;0.95;;;;;;;17.68;67.94;93863.47;5112607;28;20204;-77
2021/09/17 10:39:28;;;;;;;1.88;1.23;;;;;;;18.10;71.87;93865.69;5113015;28;20201;-77
2021/09/17 10:42:14;;;;;;;1.45;1.10;;;;;;;18.28;66.98;93855.84;5112942;28;20197;-77
2021/09/17 10:45:18;;;;;;;1.35;1.00;;;;;;;18.30;66.38;93856.38;5112822;28;20216;-77
2021/09/17 10:48:01;;;;;;;1.70;1.10;;;;;;;18.59;60.99;93856.22;5112882;28;20198;-77
2021/09/17 10:50:59;;;;;;;1.85;1.08;;;;;;;18.82;62.58;93860.41;5112757;28;20225;-77
2021/09/17 10:54:05;;;;;;;1.30;1.00;;;;;;;18.25;62.17;93853.69;5112817;28;20218;-76
2021/09/17 10:57:05;;;;;;;1.38;1.25;;;;;;;18.02;67.50;93860.81;5112721;28;20586;-77
2021/09/17 10:59:46;;;;;;;1.35;1.23;;;;;;;17.81;64.76;93858.91;5109096;28;20206;-76
2021/09/17 11:02:13;;;;;;;2.53;1.20;;;;;;;17.86;65.78;93854.50;5112698;28;20205;-77
2021/09/17 11:04:42;;;;;;;1.77;1.20;;;;;;;17.73;71.16;93854.84;5112612;28;20201;-77
2021/09/17 11:07:36;;;;;;;1.50;1.35;;;;;;;17.61;68.52;93856.78;5110771;28;20292;-77
2021/09/17 11:10:06;;;;;;;1.55;1.13;;;;;;;17.65;68.93;93858.72;5075733;28;20201;-77
2021/09/17 11:12:34;;;;;;;3.20;1.17;;;;;;;17.78;68.04;93856.75;5115017;28;20197;-78
2021/09/17 11:15:13;;;;;;;3.25;1.30;;;;;;;17.94;63.23;93851.47;5116241;28;20233;-76
2021/09/17 11:17:43;;;;;;;1.75;1.20;;;;;;;17.92;63.84;93852.75;5115658;28;20197;-77
2021/09/17 11:20:12;;;;;;;1.38;1.10;;;;;;;18.06;66.22;93850.56;5115697;28;20431;-76
2021/09/17 11:22:53;;;;;;;2.67;1.50;;;;;;;18.39;64.98;93844.34;5116176;28;20204;-78
2021/09/17 11:25:25;;;;;;;1.40;1.17;;;;;;;18.63;63.21;93836.94;5115939;28;20204;-76
2021/09/17 11:27:52;;;;;;;0.95;0.85;;;;;;;19.13;59.07;93840.34;5116221;28;20206;-77
2021/09/17 11:30:23;;;;;;;1.33;1.15;;;;;;;18.69;62.19;93843.09;5116129;28;20212;-77
2021/09/17 11:32:50;;;;;;;3.45;1.25;;;;;;;18.76;62.54;93843.69;5115645;28;20242;-77